Time;durP1;ratioP1;P1;durP2;ratioP2;P2;SDS_P1;SDS_P2;PMS_P1;PMS_P2;Temp;Humidity;BMP_temperature;BMP_pressure;BME280_temperature;BME280_humidity;BME280_pressure;Samples;Min_cycle;Max_cycle;Signal;HPM_P1;HPM_P2
2023/05/07 00:02:02;;;;;;;4.83;3.03;;;19.80;71.70;;;;;;5073031;28;20211;-78
2023/05/07 00:04:35;;;;;;;3.13;2.70;;;19.80;71.50;;;;;;5073460;28;20615;-78
2023/05/07 00:07:02;;;;;;;2.97;2.67;;;19.80;71.50;;;;;;5073924;28;20301;-79
2023/05/07 00:09:29;;;;;;;4.00;2.60;;;19.80;71.70;;;;;;5072732;28;20669;-78
2023/05/07 00:11:56;;;;;;;6.13;2.97;;;19.80;72.10;;;;;;5073471;28;20235;-78
2023/05/07 00:14:23;;;;;;;4.53;2.60;;;19.80;71.90;;;;;;5073569;28;20213;-79
2023/05/07 00:16:51;;;;;;;3.33;2.87;;;19.70;72.00;;;;;;5080093;28;20205;-79
2023/05/07 00:19:18;;;;;;;4.23;2.97;;;19.70;72.10;;;;;;5074371;28;20225;-79
2023/05/07 00:21:45;;;;;;;3.73;3.00;;;19.60;72.00;;;;;;5092083;28;20226;-80
2023/05/07 00:24:12;;;;;;;3.70;2.97;;;19.60;72.30;;;;;;5077880;28;20254;-78
2023/05/07 00:26:38;;;;;;;2.90;2.60;;;19.60;72.30;;;;;;5077291;28;20232;-79
2023/05/07 00:29:05;;;;;;;3.57;2.67;;;19.50;72.20;;;;;;5086115;28;20189;-79
2023/05/07 00:31:32;;;;;;;5.47;3.23;;;19.50;72.20;;;;;;5093166;28;20300;-79
2023/05/07 00:34:00;;;;;;;3.40;3.07;;;19.50;72.20;;;;;;5093600;28;20236;-78
2023/05/07 00:36:27;;;;;;;5.33;3.10;;;19.40;72.20;;;;;;5091848;28;20451;-78
2023/05/07 00:38:55;;;;;;;3.57;3.00;;;19.40;72.40;;;;;;5056294;28;20288;-79
2023/05/07 00:41:22;;;;;;;3.40;3.10;;;19.30;72.50;;;;;;5087622;28;20228;-78
2023/05/07 00:43:51;;;;;;;5.13;2.93;;;19.30;72.60;;;;;;5093602;28;20212;-78
2023/05/07 00:46:18;;;;;;;3.07;2.70;;;19.30;72.70;;;;;;5074341;28;20658;-77
2023/05/07 00:48:46;;;;;;;3.00;2.60;;;19.20;72.80;;;;;;5072656;28;20235;-79
2023/05/07 00:51:14;;;;;;;4.60;2.90;;;19.20;72.80;;;;;;5073118;28;20830;-79
2023/05/07 00:53:41;;;;;;;4.00;3.00;;;19.20;72.80;;;;;;5072327;28;20205;-78
2023/05/07 00:56:08;;;;;;;4.47;2.73;;;19.20;72.60;;;;;;5073080;28;20227;-79
2023/05/07 00:58:35;;;;;;;3.37;2.80;;;19.20;72.50;;;;;;5073124;28;20224;-78
2023/05/07 01:01:03;;;;;;;4.03;2.63;;;19.20;72.50;;;;;;5072776;28;20258;-79
2023/05/07 01:03:30;;;;;;;4.03;2.70;;;19.10;72.50;;;;;;5091995;28;20279;-78
2023/05/07 01:05:59;;;;;;;3.63;2.80;;;19.10;72.60;;;;;;5093351;28;20230;-78
2023/05/07 01:08:29;;;;;;;3.13;2.60;;;19.10;72.60;;;;;;5093537;28;20235;-78
2023/05/07 01:11:05;;;;;;;5.63;2.73;;;19.10;72.60;;;;;;5093354;28;20657;-79
2023/05/07 01:13:32;;;;;;;5.17;3.13;;;19.00;72.60;;;;;;5087307;28;20469;-79
2023/05/07 01:15:59;;;;;;;2.93;2.60;;;19.00;72.40;;;;;;5088986;28;20493;-78
2023/05/07 01:18:28;;;;;;;4.40;2.87;;;19.00;72.50;;;;;;5084455;28;20201;-79
2023/05/07 01:21:12;;;;;;;2.87;2.67;;;19.00;72.80;;;;;;5077762;28;20201;-79
2023/05/07 01:23:41;;;;;;;5.23;3.23;;;19.00;73.30;;;;;;5082823;28;20200;-78
2023/05/07 01:26:08;;;;;;;3.90;2.93;;;19.00;73.00;;;;;;5080616;28;20508;-79
2023/05/07 01:28:35;;;;;;;3.63;2.63;;;19.00;73.10;;;;;;5079000;28;20201;-79
2023/05/07 01:31:04;;;;;;;4.47;2.70;;;19.00;73.20;;;;;;5071973;28;20208;-78
2023/05/07 01:33:34;;;;;;;3.67;3.17;;;18.90;73.10;;;;;;5075681;28;20653;-78
2023/05/07 01:36:03;;;;;;;3.40;3.10;;;18.90;73.10;;;;;;5091893;28;20595;-79
2023/05/07 01:38:30;;;;;;;3.17;2.83;;;18.90;73.10;;;;;;5074074;28;20978;-79
2023/05/07 01:41:02;;;;;;;4.23;3.10;;;18.90;73.20;;;;;;5059182;28;20458;-78
2023/05/07 01:43:30;;;;;;;3.93;3.07;;;18.80;73.30;;;;;;5082238;28;20490;-79
2023/05/07 01:45:59;;;;;;;3.63;2.90;;;18.80;73.40;;;;;;5084726;28;20450;-78
2023/05/07 01:48:27;;;;;;;3.50;3.20;;;18.80;73.50;;;;;;5093247;28;20224;-79
2023/05/07 01:50:54;;;;;;;3.80;3.17;;;18.80;73.60;;;;;;5081954;28;20809;-79
2023/05/07 01:53:21;;;;;;;3.03;2.77;;;18.80;73.50;;;;;;5072800;28;20451;-79
2023/05/07 01:55:48;;;;;;;5.00;2.93;;;18.70;73.50;;;;;;5077226;28;20228;-79
2023/05/07 01:58:16;;;;;;;3.30;2.80;;;18.70;73.50;;;;;;5079442;28;21081;-80
2023/05/07 02:00:43;;;;;;;4.47;3.00;;;18.70;73.80;;;;;;5082713;28;20483;-79
2023/05/07 02:03:10;;;;;;;3.43;2.67;;;18.70;73.70;;;;;;5075972;28;20669;-79
2023/05/07 02:05:37;;;;;;;2.90;2.70;;;18.60;73.60;;;;;;5093114;28;20227;-79
2023/05/07 02:08:04;;;;;;;2.97;2.67;;;18.60;73.70;;;;;;5060869;28;20458;-79
2023/05/07 02:10:31;;;;;;;3.40;2.70;;;18.60;73.90;;;;;;5096061;28;20215;-78
2023/05/07 02:12:59;;;;;;;3.73;2.90;;;18.60;74.00;;;;;;5096142;28;20299;-79
2023/05/07 02:15:27;;;;;;;2.83;2.53;;;18.60;74.00;;;;;;5092252;28;20363;-79
2023/05/07 02:18:02;;;;;;;3.13;2.83;;;18.60;74.00;;;;;;5056887;28;20452;-79
2023/05/07 02:20:28;;;;;;;3.53;3.00;;;18.60;74.20;;;;;;5092039;28;20848;-79
2023/05/07 02:22:55;;;;;;;2.87;2.67;;;18.50;74.00;;;;;;5075410;28;20458;-79
2023/05/07 02:25:22;;;;;;;3.00;2.70;;;18.50;73.90;;;;;;5095306;28;20450;-79
2023/05/07 02:27:49;;;;;;;4.47;2.73;;;18.50;73.90;;;;;;5095967;28;20918;-79
2023/05/07 02:30:16;;;;;;;3.13;2.83;;;18.50;73.90;;;;;;5095499;28;20299;-79
2023/05/07 02:32:45;;;;;;;3.97;3.10;;;18.50;73.90;;;;;;5055659;28;20444;-79
2023/05/07 02:35:12;;;;;;;4.43;2.90;;;18.50;74.00;;;;;;5093597;28;20510;-78
2023/05/07 02:37:38;;;;;;;3.50;2.73;;;18.50;73.90;;;;;;5094655;28;20460;-78
2023/05/07 02:40:06;;;;;;;5.00;2.80;;;18.40;74.00;;;;;;5084666;28;20473;-79
2023/05/07 02:42:33;;;;;;;3.60;3.10;;;18.50;74.30;;;;;;5075351;28;20472;-79
2023/05/07 02:45:00;;;;;;;3.30;3.00;;;18.40;74.40;;;;;;5074533;28;20442;-79
2023/05/07 02:47:28;;;;;;;3.33;3.03;;;18.40;74.50;;;;;;5075671;28;20206;-78
2023/05/07 02:49:56;;;;;;;4.10;3.10;;;18.40;74.50;;;;;;5093198;28;20274;-79
2023/05/07 02:52:23;;;;;;;3.50;3.20;;;18.40;74.60;;;;;;5092321;28;20454;-78
2023/05/07 02:54:50;;;;;;;3.70;3.33;;;18.50;74.60;;;;;;5089661;28;20478;-79
2023/05/07 02:57:17;;;;;;;3.87;2.83;;;18.40;74.40;;;;;;5093612;28;20224;-78
2023/05/07 02:59:44;;;;;;;3.30;2.93;;;18.40;74.40;;;;;;5078520;28;20958;-79
2023/05/07 03:02:11;;;;;;;4.43;3.10;;;18.40;74.50;;;;;;5094075;28;20202;-79
2023/05/07 03:04:38;;;;;;;3.27;3.07;;;18.40;74.50;;;;;;5073982;28;20470;-79
2023/05/07 03:07:07;;;;;;;3.60;2.80;;;18.40;74.60;;;;;;5075818;28;20439;-79
2023/05/07 03:09:33;;;;;;;4.17;3.03;;;18.30;74.40;;;;;;5075279;28;20961;-79
2023/05/07 03:12:01;;;;;;;4.27;3.03;;;18.30;74.40;;;;;;5076010;28;20951;-79
2023/05/07 03:14:28;;;;;;;3.43;2.87;;;18.30;74.40;;;;;;5088922;28;20485;-79
2023/05/07 03:16:55;;;;;;;3.23;2.97;;;18.30;74.40;;;;;;5095372;28;20215;-79
2023/05/07 03:19:22;;;;;;;3.53;2.90;;;18.30;74.50;;;;;;5094831;28;20977;-79
2023/05/07 03:21:48;;;;;;;3.00;2.70;;;18.20;74.30;;;;;;5094803;28;20545;-79
2023/05/07 03:24:17;;;;;;;3.40;2.80;;;18.20;74.50;;;;;;5092199;28;20196;-79
2023/05/07 03:26:44;;;;;;;5.00;3.30;;;18.20;74.50;;;;;;5093939;28;20430;-80
2023/05/07 03:29:10;;;;;;;2.90;2.60;;;18.20;74.70;;;;;;5094925;28;20207;-79
2023/05/07 03:31:37;;;;;;;3.67;2.90;;;18.20;74.70;;;;;;5094536;28;21309;-79
2023/05/07 03:34:05;;;;;;;4.07;3.00;;;18.20;74.60;;;;;;5095143;28;20195;-79
2023/05/07 03:36:31;;;;;;;3.13;2.83;;;18.20;74.50;;;;;;5075724;28;20517;-79
2023/05/07 03:38:58;;;;;;;3.40;3.00;;;18.20;74.40;;;;;;5094311;28;20485;-79
2023/05/07 03:41:27;;;;;;;3.90;3.17;;;18.10;74.20;;;;;;5092743;28;20462;-79
2023/05/07 03:43:53;;;;;;;4.40;3.10;;;18.20;74.40;;;;;;5084986;28;20200;-79
2023/05/07 03:46:20;;;;;;;3.43;2.90;;;18.10;74.20;;;;;;5092989;28;20466;-79
2023/05/07 03:48:47;;;;;;;3.67;3.27;;;18.10;74.30;;;;;;5084692;28;20455;-78
2023/05/07 03:51:14;;;;;;;3.37;3.00;;;18.10;74.50;;;;;;5084081;28;20554;-78
2023/05/07 03:53:41;;;;;;;3.53;3.23;;;18.00;74.50;;;;;;5036024;28;20472;-79
2023/05/07 03:56:08;;;;;;;3.43;3.00;;;18.00;74.60;;;;;;5053211;28;20492;-79
2023/05/07 03:58:36;;;;;;;4.00;3.43;;;18.00;74.60;;;;;;5069247;28;21001;-78
2023/05/07 04:01:03;;;;;;;3.60;3.30;;;17.90;74.50;;;;;;5087172;28;20479;-78
2023/05/07 04:03:30;;;;;;;3.07;2.67;;;17.90;74.60;;;;;;5076694;28;20454;-78
2023/05/07 04:05:57;;;;;;;6.30;2.97;;;17.90;74.70;;;;;;5083673;28;20444;-79
2023/05/07 04:08:24;;;;;;;4.03;2.90;;;17.90;74.80;;;;;;5073451;28;20471;-79
2023/05/07 04:10:55;;;;;;;3.60;2.97;;;17.90;75.00;;;;;;5085652;28;20837;-79
2023/05/07 04:13:22;;;;;;;3.53;2.90;;;17.90;75.30;;;;;;5076969;28;20457;-78
2023/05/07 04:15:51;;;;;;;3.43;3.13;;;17.90;75.10;;;;;;5087268;28;20486;-78
2023/05/07 04:18:18;;;;;;;3.27;2.97;;;17.90;75.30;;;;;;5063504;28;20446;-78
2023/05/07 04:20:46;;;;;;;3.80;3.00;;;17.90;75.20;;;;;;5071642;28;20965;-75
2023/05/07 04:23:13;;;;;;;3.83;2.83;;;17.90;75.30;;;;;;5076176;28;21043;-78
2023/05/07 04:25:40;;;;;;;5.87;3.50;;;17.90;75.40;;;;;;5073804;28;20580;-78
2023/05/07 04:28:07;;;;;;;4.53;3.27;;;17.90;75.40;;;;;;5073592;28;20450;-78
2023/05/07 04:30:34;;;;;;;3.53;3.23;;;17.90;75.40;;;;;;5085030;28;20545;-78
2023/05/07 04:33:02;;;;;;;3.23;2.93;;;17.90;75.40;;;;;;5045451;28;20989;-78
2023/05/07 04:35:29;;;;;;;3.60;3.07;;;17.90;75.50;;;;;;5080438;28;20978;-78
2023/05/07 04:37:56;;;;;;;3.03;2.80;;;17.90;75.50;;;;;;5073528;28;20455;-78
2023/05/07 04:40:23;;;;;;;4.37;3.30;;;17.90;75.50;;;;;;5083642;28;20805;-78
2023/05/07 04:42:50;;;;;;;3.70;3.40;;;17.90;75.70;;;;;;5082212;28;20458;-80
2023/05/07 04:45:16;;;;;;;4.17;3.43;;;17.90;75.60;;;;;;5088401;28;20486;-79
2023/05/07 04:47:43;;;;;;;3.20;2.90;;;17.90;76.40;;;;;;5087123;28;20454;-79
2023/05/07 04:50:12;;;;;;;3.57;3.27;;;18.00;75.80;;;;;;5085908;28;20455;-79
2023/05/07 04:52:39;;;;;;;3.50;3.20;;;18.00;75.60;;;;;;5076356;28;20435;-78
2023/05/07 04:55:06;;;;;;;3.43;3.10;;;18.00;75.50;;;;;;5091782;28;20458;-78
2023/05/07 04:57:33;;;;;;;3.10;2.90;;;18.10;75.70;;;;;;5083108;28;20565;-77
2023/05/07 05:00:00;;;;;;;3.40;3.10;;;18.10;75.80;;;;;;5085382;28;20445;-78
2023/05/07 05:02:27;;;;;;;3.40;2.83;;;18.10;75.90;;;;;;5092257;28;20930;-78
2023/05/07 05:04:53;;;;;;;5.60;3.07;;;18.10;75.80;;;;;;5092010;28;20567;-78
2023/05/07 05:07:22;;;;;;;3.40;3.10;;;18.20;76.00;;;;;;5085143;28;20438;-78
2023/05/07 05:09:48;;;;;;;4.33;3.30;;;18.20;76.00;;;;;;5084803;28;20197;-78
2023/05/07 05:12:15;;;;;;;4.07;2.97;;;18.20;76.70;;;;;;5071660;28;20485;-79
2023/05/07 05:14:42;;;;;;;3.87;3.57;;;18.30;76.10;;;;;;5081446;28;20199;-78
2023/05/07 05:17:09;;;;;;;3.60;3.10;;;18.30;76.20;;;;;;5072683;28;20522;-79
2023/05/07 05:19:36;;;;;;;3.23;3.00;;;18.30;76.30;;;;;;5074184;28;20447;-78
2023/05/07 05:22:03;;;;;;;8.50;3.83;;;18.40;76.50;;;;;;5083397;28;20863;-78
2023/05/07 05:24:31;;;;;;;3.53;2.87;;;18.40;76.60;;;;;;5087885;28;20454;-78
2023/05/07 05:26:59;;;;;;;3.83;2.70;;;18.40;76.50;;;;;;5080494;28;20201;-78
2023/05/07 05:29:26;;;;;;;4.67;3.10;;;18.50;76.40;;;;;;5089760;28;20857;-78
2023/05/07 05:31:53;;;;;;;4.17;3.40;;;18.50;76.40;;;;;;5072875;28;20462;-80
2023/05/07 05:34:21;;;;;;;3.50;3.20;;;18.60;76.60;;;;;;5089833;28;20601;-77
2023/05/07 05:36:48;;;;;;;3.67;3.20;;;18.60;76.80;;;;;;5091837;28;20474;-79
2023/05/07 05:39:15;;;;;;;5.83;3.37;;;18.70;76.90;;;;;;5076566;28;20486;-79
2023/05/07 05:41:43;;;;;;;3.57;3.27;;;18.80;76.90;;;;;;5086548;28;20818;-79
2023/05/07 05:44:10;;;;;;;4.97;3.23;;;18.90;76.80;;;;;;5089237;28;20233;-79
2023/05/07 05:46:37;;;;;;;3.57;3.10;;;18.90;76.80;;;;;;5087843;28;20866;-78
2023/05/07 05:49:04;;;;;;;4.33;3.10;;;19.00;76.90;;;;;;5096045;28;20533;-79
2023/05/07 05:51:31;;;;;;;3.73;3.00;;;19.10;76.80;;;;;;5094355;28;20305;-79
2023/05/07 05:53:58;;;;;;;3.67;2.73;;;19.20;76.90;;;;;;5084879;28;20205;-80
2023/05/07 05:56:25;;;;;;;3.40;3.10;;;19.30;76.90;;;;;;5091806;28;20553;-78
2023/05/07 05:58:53;;;;;;;5.03;2.90;;;19.40;76.90;;;;;;5076129;28;20628;-77
2023/05/07 06:01:20;;;;;;;2.73;2.53;;;19.40;76.80;;;;;;5075882;28;20296;-79
2023/05/07 06:03:47;;;;;;;3.23;2.93;;;19.50;76.90;;;;;;5075923;28;20211;-80
2023/05/07 06:06:15;;;;;;;2.90;2.70;;;19.60;77.00;;;;;;5080926;28;20197;-79
2023/05/07 06:08:42;;;;;;;3.13;2.83;;;19.60;76.30;;;;;;5077410;28;20216;-79
2023/05/07 06:11:09;;;;;;;2.87;2.40;;;19.70;75.10;;;;;;5075895;28;20319;-79
2023/05/07 06:13:36;;;;;;;3.40;3.00;;;19.80;75.70;;;;;;5074997;28;20660;-80
2023/05/07 06:16:04;;;;;;;2.70;2.50;;;19.80;75.80;;;;;;5081478;28;20217;-79
2023/05/07 06:18:31;;;;;;;5.20;2.77;;;19.90;75.70;;;;;;5095242;28;20233;-79
2023/05/07 06:21:07;;;;;;;3.50;2.60;;;20.00;75.40;;;;;;5096187;28;20621;-79
2023/05/07 06:23:35;;;;;;;3.83;2.43;;;20.10;74.80;;;;;;5096028;28;20664;-79
2023/05/07 06:26:01;;;;;;;3.63;2.47;;;20.30;74.40;;;;;;5096093;28;20291;-79
2023/05/07 06:28:30;;;;;;;3.17;2.60;;;20.30;73.90;;;;;;5095817;28;20239;-79
2023/05/07 06:31:11;;;;;;;2.50;2.17;;;20.40;73.60;;;;;;5095820;28;20208;-77
2023/05/07 06:33:39;;;;;;;2.10;1.90;;;20.50;72.70;;;;;;5092602;28;20727;-79
2023/05/07 06:36:07;;;;;;;2.40;2.20;;;20.60;72.50;;;;;;5095710;28;20229;-80
2023/05/07 06:38:34;;;;;;;3.77;2.10;;;20.60;72.20;;;;;;5085189;28;20278;-78
2023/05/07 06:41:01;;;;;;;2.70;2.20;;;20.70;71.50;;;;;;5093067;28;20633;-82
2023/05/07 06:43:28;;;;;;;3.00;2.70;;;20.70;70.60;;;;;;5095389;28;20295;-79
2023/05/07 06:46:11;;;;;;;2.53;2.13;;;20.80;70.10;;;;;;5094340;28;20226;-79
2023/05/07 06:48:40;;;;;;;2.37;2.13;;;20.90;70.10;;;;;;5066290;28;20212;-79
2023/05/07 06:51:07;;;;;;;4.13;2.60;;;20.90;69.80;;;;;;5056201;28;20237;-78
2023/05/07 06:53:34;;;;;;;2.70;2.23;;;21.00;69.60;;;;;;5076267;28;20279;-79
2023/05/07 06:56:13;;;;;;;2.40;2.00;;;21.10;69.50;;;;;;5088237;28;20278;-80
2023/05/07 06:58:40;;;;;;;2.30;2.10;;;21.10;69.50;;;;;;5092322;28;20224;-79
2023/05/07 07:01:07;;;;;;;2.60;2.03;;;21.20;69.70;;;;;;5094458;28;20299;-79
2023/05/07 07:03:34;;;;;;;3.57;2.20;;;21.30;69.80;;;;;;5087220;28;20279;-78
2023/05/07 07:06:03;;;;;;;2.90;2.30;;;21.40;69.70;;;;;;5080158;28;20196;-77
2023/05/07 07:08:30;;;;;;;2.37;2.00;;;21.50;69.50;;;;;;5094117;28;20204;-78
2023/05/07 07:10:56;;;;;;;2.47;2.27;;;21.60;69.80;;;;;;5081237;28;20799;-77
2023/05/07 07:13:23;;;;;;;2.07;1.87;;;21.70;69.50;;;;;;5084128;28;20636;-78
2023/05/07 07:15:52;;;;;;;2.20;2.00;;;21.70;69.30;;;;;;5076118;28;20197;-78
2023/05/07 07:18:19;;;;;;;4.47;2.20;;;21.90;69.50;;;;;;5090426;28;20203;-81
2023/05/07 07:20:46;;;;;;;2.53;1.90;;;21.90;69.50;;;;;;5079228;28;20201;-78
2023/05/07 07:23:14;;;;;;;2.10;2.00;;;22.10;69.40;;;;;;5086369;28;20203;-78
2023/05/07 07:25:41;;;;;;;2.03;1.93;;;22.10;68.70;;;;;;5079817;28;20203;-79
2023/05/07 07:28:08;;;;;;;3.50;2.20;;;22.20;68.30;;;;;;5080390;28;20613;-78
2023/05/07 07:30:35;;;;;;;2.47;2.27;;;22.30;68.10;;;;;;5073864;28;20236;-78
2023/05/07 07:33:02;;;;;;;2.30;2.10;;;22.40;67.70;;;;;;5074317;28;20244;-80
2023/05/07 07:35:29;;;;;;;3.50;2.07;;;22.40;67.70;;;;;;5074776;28;20248;-78
2023/05/07 07:37:56;;;;;;;3.00;2.27;;;22.50;67.10;;;;;;5086380;28;20311;-78
2023/05/07 07:40:25;;;;;;;2.43;2.20;;;22.60;67.40;;;;;;5079620;28;20251;-77
2023/05/07 07:42:52;;;;;;;2.77;2.17;;;22.60;67.30;;;;;;5086242;28;20834;-78
2023/05/07 07:45:19;;;;;;;2.23;1.90;;;22.70;67.40;;;;;;5087585;28;20204;-78
2023/05/07 07:47:47;;;;;;;1.80;1.70;;;22.80;67.70;;;;;;5092881;28;20200;-79
2023/05/07 07:50:14;;;;;;;4.30;2.10;;;22.90;67.50;;;;;;5090825;28;20236;-79
2023/05/07 07:52:41;;;;;;;2.93;1.80;;;22.90;67.20;;;;;;5079030;28;20716;-80
2023/05/07 07:55:08;;;;;;;2.60;2.00;;;23.00;66.40;;;;;;5094241;28;20211;-78
2023/05/07 07:57:37;;;;;;;2.13;1.93;;;23.10;65.50;;;;;;5081878;28;20221;-78
2023/05/07 08:00:06;;;;;;;6.37;2.37;;;23.20;65.50;;;;;;5087506;28;20312;-78
2023/05/07 08:02:33;;;;;;;3.03;1.90;;;23.30;65.10;;;;;;5091388;28;20292;-73
2023/05/07 08:05:00;;;;;;;3.97;2.30;;;23.40;64.10;;;;;;5075073;28;20576;-72
2023/05/07 08:07:27;;;;;;;3.67;2.63;;;23.40;62.90;;;;;;5072283;28;20205;-72
2023/05/07 08:09:54;;;;;;;2.30;2.10;;;23.50;63.00;;;;;;5085800;28;20200;-73
2023/05/07 08:12:21;;;;;;;2.57;2.20;;;23.50;63.00;;;;;;5084758;28;20292;-73
2023/05/07 08:14:49;;;;;;;2.33;2.13;;;23.50;62.90;;;;;;5090934;28;20623;-73
2023/05/07 08:17:16;;;;;;;4.37;2.60;;;23.60;62.90;;;;;;5090791;28;20538;-74
2023/05/07 08:19:43;;;;;;;2.80;2.30;;;23.70;62.50;;;;;;5092169;28;20687;-72
2023/05/07 08:22:10;;;;;;;2.57;2.23;;;23.80;62.70;;;;;;5080430;28;20671;-73
2023/05/07 08:24:37;;;;;;;2.27;2.00;;;23.80;62.40;;;;;;5072223;28;20236;-73
2023/05/07 08:27:04;;;;;;;2.77;2.00;;;23.80;62.60;;;;;;5073024;28;20196;-73
2023/05/07 08:29:31;;;;;;;2.77;2.43;;;24.00;63.20;;;;;;5063298;28;20300;-72
2023/05/07 08:31:59;;;;;;;3.03;2.33;;;24.00;62.00;;;;;;5071310;28;20223;-73
2023/05/07 08:34:26;;;;;;;2.30;2.10;;;24.00;62.00;;;;;;5071942;28;20617;-73
2023/05/07 08:36:53;;;;;;;2.97;2.50;;;24.10;62.40;;;;;;5074992;28;20315;-72
2023/05/07 08:39:20;;;;;;;3.20;2.90;;;24.10;63.30;;;;;;5071133;28;20610;-71
2023/05/07 08:41:48;;;;;;;3.00;2.53;;;24.20;62.00;;;;;;5082356;28;20231;-72
2023/05/07 08:44:17;;;;;;;2.30;2.10;;;24.10;61.90;;;;;;5074716;28;20263;-73
2023/05/07 08:46:47;;;;;;;2.90;2.60;;;24.10;62.40;;;;;;5073503;28;20189;-74
2023/05/07 08:49:16;;;;;;;2.60;2.40;;;24.20;61.90;;;;;;5070826;28;20311;-73
2023/05/07 08:51:43;;;;;;;2.60;2.40;;;24.20;61.20;;;;;;5072309;28;20251;-73
2023/05/07 08:54:12;;;;;;;3.03;2.73;;;24.20;61.40;;;;;;5072379;28;20212;-72
2023/05/07 08:56:39;;;;;;;2.63;2.43;;;24.30;61.60;;;;;;5075625;28;20221;-73
2023/05/07 08:59:06;;;;;;;2.90;2.30;;;24.40;62.00;;;;;;5092636;28;20224;-73
2023/05/07 09:01:35;;;;;;;3.10;2.47;;;24.50;61.90;;;;;;5087586;28;20228;-73
2023/05/07 09:04:02;;;;;;;2.80;2.17;;;24.60;61.80;;;;;;5072486;28;20628;-74
2023/05/07 09:06:31;;;;;;;2.97;2.30;;;24.70;61.70;;;;;;5072641;28;20839;-73
2023/05/07 09:09:00;;;;;;;2.83;2.50;;;24.80;60.90;;;;;;5055883;28;20661;-73
2023/05/07 09:11:28;;;;;;;3.23;2.07;;;24.90;60.80;;;;;;5059449;28;20255;-73
2023/05/07 09:13:57;;;;;;;3.83;2.63;;;25.00;60.10;;;;;;5076521;28;20602;-73
2023/05/07 09:16:25;;;;;;;4.37;2.33;;;25.10;59.80;;;;;;5077130;28;20201;-73
2023/05/07 09:18:53;;;;;;;2.60;2.37;;;25.10;59.70;;;;;;5076193;28;20221;-72
2023/05/07 09:21:22;;;;;;;2.57;2.20;;;25.30;59.50;;;;;;5091790;28;20291;-74
2023/05/07 09:23:51;;;;;;;2.33;2.13;;;25.40;60.00;;;;;;5096303;28;20235;-74
2023/05/07 09:26:19;;;;;;;2.47;2.27;;;25.60;60.10;;;;;;5093891;28;20200;-73
2023/05/07 09:28:46;;;;;;;2.70;2.40;;;25.70;60.10;;;;;;5094724;28;20584;-73
2023/05/07 09:31:13;;;;;;;2.30;2.13;;;25.90;59.80;;;;;;5092797;28;20204;-73
2023/05/07 09:33:40;;;;;;;3.30;2.23;;;26.10;59.40;;;;;;5087264;28;20231;-73
2023/05/07 09:36:09;;;;;;;3.13;2.23;;;26.20;59.30;;;;;;5076980;28;20202;-73
2023/05/07 09:38:37;;;;;;;3.10;2.50;;;26.40;59.70;;;;;;5076458;28;20220;-74
2023/05/07 09:41:07;;;;;;;2.50;2.30;;;26.50;59.60;;;;;;5075413;28;20234;-73
2023/05/07 09:43:34;;;;;;;2.37;2.17;;;26.70;58.40;;;;;;5077008;28;20202;-73
2023/05/07 09:46:04;;;;;;;2.20;2.10;;;26.70;58.40;;;;;;5075915;28;20233;-73
2023/05/07 09:48:31;;;;;;;3.87;2.30;;;26.90;58.30;;;;;;5075308;28;20194;-74
2023/05/07 09:51:03;;;;;;;3.27;2.40;;;27.00;57.60;;;;;;5089525;28;20236;-73
2023/05/07 09:53:31;;;;;;;2.60;2.17;;;27.10;57.10;;;;;;5087662;28;20202;-73
2023/05/07 09:55:59;;;;;;;4.27;2.47;;;27.10;56.50;;;;;;5095520;28;20566;-72
2023/05/07 09:58:29;;;;;;;3.73;2.40;;;27.20;56.60;;;;;;5082112;28;20712;-73
2023/05/07 10:00:57;;;;;;;2.53;2.33;;;27.30;56.10;;;;;;5075618;28;20579;-73
2023/05/07 10:03:26;;;;;;;4.27;2.40;;;27.40;55.30;;;;;;5076447;28;20662;-73
2023/05/07 10:06:06;;;;;;;2.57;2.10;;;27.30;55.50;;;;;;5075355;28;20205;-72
2023/05/07 10:08:33;;;;;;;2.50;2.30;;;27.40;55.80;;;;;;5078276;28;20227;-73
2023/05/07 10:11:01;;;;;;;2.37;1.97;;;27.50;55.80;;;;;;5095439;28;20204;-74
2023/05/07 10:13:29;;;;;;;3.13;2.27;;;27.60;55.60;;;;;;5093908;28;20226;-73
2023/05/07 10:15:57;;;;;;;2.60;2.33;;;27.70;56.10;;;;;;5090985;28;20196;-73
2023/05/07 10:18:29;;;;;;;3.17;2.10;;;27.80;56.20;;;;;;5086503;28;20233;-73
2023/05/07 10:21:08;;;;;;;2.40;2.10;;;27.90;56.10;;;;;;5092997;28;20203;-72
2023/05/07 10:23:36;;;;;;;2.57;2.30;;;28.10;56.00;;;;;;5077429;28;20208;-73
2023/05/07 10:26:06;;;;;;;2.10;1.73;;;28.20;55.10;;;;;;5055119;28;20206;-73
2023/05/07 10:28:39;;;;;;;2.80;2.50;;;28.30;54.20;;;;;;5086603;28;20258;-72
2023/05/07 10:31:24;;;;;;;2.80;2.17;;;28.40;54.10;;;;;;5077224;28;20311;-73
2023/05/07 10:33:53;;;;;;;2.70;2.40;;;28.40;53.30;;;;;;5073833;28;20237;-72
2023/05/07 10:36:22;;;;;;;2.70;2.50;;;28.40;52.80;;;;;;5073912;28;20233;-73
2023/05/07 10:38:49;;;;;;;2.70;2.30;;;28.30;52.80;;;;;;5073266;28;20231;-73
2023/05/07 10:41:16;;;;;;;2.40;2.20;;;28.30;53.60;;;;;;5073548;28;20218;-72
2023/05/07 10:43:46;;;;;;;2.60;2.40;;;28.40;54.00;;;;;;5073608;28;20235;-73
2023/05/07 10:46:16;;;;;;;5.07;2.60;;;28.50;52.80;;;;;;5073461;28;20218;-73
2023/05/07 10:49:15;;;;;;;2.10;2.00;;;28.60;52.60;;;;;;5073482;28;20657;-73
2023/05/07 10:51:42;;;;;;;3.17;2.10;;;28.70;54.20;;;;;;5073051;28;20734;-73
2023/05/07 10:54:23;;;;;;;3.10;2.80;;;28.80;53.90;;;;;;5073333;28;20205;-73
2023/05/07 10:56:50;;;;;;;2.43;2.23;;;28.90;51.30;;;;;;5073422;28;20232;-73
2023/05/07 10:59:43;;;;;;;4.30;2.60;;;28.90;51.70;;;;;;5073194;28;20230;-73
2023/05/07 11:02:13;;;;;;;4.33;2.77;;;28.70;50.60;;;;;;5073058;28;20227;-73
2023/05/07 11:04:41;;;;;;;4.83;2.67;;;28.70;51.40;;;;;;5073102;28;20274;-73
2023/05/07 11:07:26;;;;;;;3.23;2.23;;;28.70;51.30;;;;;;5067047;28;20201;-73
2023/05/07 11:10:01;;;;;;;3.70;2.00;;;28.80;52.00;;;;;;5034133;28;20213;-72
2023/05/07 11:13:04;;;;;;;2.80;2.10;;;29.10;52.80;;;;;;5072903;28;20253;-72
2023/05/07 11:18:24;;;;;;;3.93;2.63;;;29.40;49.80;;;;;;5072194;28;20311;-71
2023/05/07 11:20:57;;;;;;;3.53;2.30;;;29.20;49.80;;;;;;5072677;28;20233;-74
2023/05/07 11:23:59;;;;;;;2.30;2.10;;;29.20;51.10;;;;;;5072826;28;20299;-72
2023/05/07 11:26:27;;;;;;;2.60;2.17;;;29.30;49.90;;;;;;5054167;28;20207;-73
2023/05/07 11:28:54;;;;;;;2.70;2.50;;;29.50;50.70;;;;;;5072849;28;20651;-73
2023/05/07 11:31:25;;;;;;;3.73;2.10;;;29.70;50.20;;;;;;5071341;28;20724;-73
2023/05/07 11:33:53;;;;;;;2.90;2.60;;;29.90;50.80;;;;;;5072896;28;20724;-72
2023/05/07 11:36:20;;;;;;;2.57;2.03;;;30.10;50.80;;;;;;5072135;28;20201;-72
2023/05/07 11:38:47;;;;;;;2.10;1.90;;;30.20;50.80;;;;;;5072607;28;20232;-73
2023/05/07 11:41:14;;;;;;;2.30;2.10;;;30.30;49.90;;;;;;5072181;28;20723;-72
2023/05/07 11:43:56;;;;;;;3.97;2.20;;;30.40;48.90;;;;;;5072595;28;20554;-72
2023/05/07 11:46:24;;;;;;;2.40;2.00;;;30.40;48.40;;;;;;5072303;28;20240;-73
2023/05/07 11:48:51;;;;;;;2.87;2.10;;;30.50;49.40;;;;;;5072063;28;20689;-73
2023/05/07 11:51:22;;;;;;;3.50;2.27;;;30.50;49.00;;;;;;5071332;28;20213;-73
2023/05/07 11:53:50;;;;;;;2.10;1.90;;;30.40;49.00;;;;;;5072172;28;20759;-72
2023/05/07 11:56:18;;;;;;;2.73;2.00;;;30.60;49.10;;;;;;5072178;28;20653;-73
2023/05/07 11:58:47;;;;;;;2.17;1.97;;;30.70;49.30;;;;;;5072389;28;20311;-72
2023/05/07 12:01:15;;;;;;;3.03;2.23;;;30.80;48.90;;;;;;5071799;28;20240;-73
2023/05/07 12:03:45;;;;;;;2.90;2.10;;;30.90;50.40;;;;;;5072199;28;20205;-73
2023/05/07 12:06:13;;;;;;;2.20;2.00;;;30.90;49.60;;;;;;5072213;28;20312;-72
2023/05/07 12:08:42;;;;;;;2.40;2.20;;;31.00;50.00;;;;;;5053454;28;20205;-72
2023/05/07 12:11:17;;;;;;;2.67;2.00;;;31.00;49.10;;;;;;5073543;28;20200;-74
2023/05/07 12:13:44;;;;;;;3.10;2.30;;;30.90;48.20;;;;;;5092061;28;20250;-71
2023/05/07 12:16:12;;;;;;;2.43;2.27;;;30.80;48.40;;;;;;5092195;28;20231;-72
2023/05/07 12:18:39;;;;;;;3.90;2.60;;;30.80;47.80;;;;;;5092406;28;20231;-72
2023/05/07 12:21:08;;;;;;;2.57;2.27;;;30.80;47.20;;;;;;5091751;28;20736;-73
2023/05/07 12:23:37;;;;;;;3.53;2.53;;;30.60;48.00;;;;;;5075937;28;20254;-71
2023/05/07 12:26:05;;;;;;;3.60;2.33;;;30.60;48.00;;;;;;5091687;28;20319;-72
2023/05/07 12:28:38;;;;;;;2.60;2.40;;;30.80;49.10;;;;;;5091886;28;20207;-72
2023/05/07 12:31:06;;;;;;;2.40;2.20;;;30.90;47.30;;;;;;5091820;28;20211;-71
2023/05/07 12:33:33;;;;;;;3.27;2.70;;;30.80;46.60;;;;;;5087453;28;20200;-72
2023/05/07 12:36:04;;;;;;;3.40;2.30;;;30.50;47.30;;;;;;5091903;28;20619;-72
2023/05/07 12:38:37;;;;;;;2.33;2.13;;;30.50;47.40;;;;;;5092054;28;20235;-72
2023/05/07 12:41:04;;;;;;;2.53;2.33;;;30.50;47.40;;;;;;5091602;28;20339;-71
2023/05/07 12:43:31;;;;;;;2.90;2.10;;;30.60;47.00;;;;;;5091536;28;20295;-71
2023/05/07 12:46:02;;;;;;;3.13;2.27;;;30.50;47.10;;;;;;5091311;28;20254;-72
2023/05/07 12:48:29;;;;;;;2.03;1.93;;;30.60;47.80;;;;;;5091490;28;20208;-71
2023/05/07 12:50:57;;;;;;;2.63;2.20;;;30.70;48.10;;;;;;5091606;28;20680;-72
2023/05/07 12:53:27;;;;;;;3.60;2.50;;;30.70;48.10;;;;;;5091311;28;20212;-72
2023/05/07 12:55:57;;;;;;;2.43;2.23;;;30.70;47.40;;;;;;5091710;28;20298;-72
2023/05/07 12:58:26;;;;;;;2.20;2.00;;;30.50;47.00;;;;;;5091846;28;20578;-71